Time;durP1;ratioP1;P1;durP2;ratioP2;P2;SDS_P1;SDS_P2;PMS_P1;PMS_P2;Temp;Humidity;BMP_temperature;BMP_pressure;BME280_temperature;BME280_humidity;BME280_pressure;Samples;Min_cycle;Max_cycle;Signal;HPM_P1;HPM_P2
2022/05/07 00:00:11;;;;;;;;;;;;;;;12.45;65.92;100465.88;1085731;54;20463;-78
2022/05/07 00:01:13;;;;;;;;;;;;;;;12.44;66.17;100466.84;1088946;46;19939;-78
2022/05/07 00:02:24;;;;;;;;;;;;;;;12.44;66.13;100469.53;1088146;54;19943;-80
2022/05/07 00:03:26;;;;;;;;;;;;;;;12.41;66.56;100469.00;1088445;46;20491;-80
2022/05/07 00:04:32;;;;;;;;;;;;;;;12.38;66.52;100466.59;1087827;54;19927;-79
2022/05/07 00:05:34;;;;;;;;;;;;;;;12.28;66.88;100458.59;1087784;54;19951;-80
2022/05/07 00:06:38;;;;;;;;;;;;;;;12.27;66.94;100463.13;1087698;54;19947;-79
2022/05/07 00:07:39;;;;;;;;;;;;;;;12.21;67.30;100463.69;1089870;39;20348;-79
2022/05/07 00:08:43;;;;;;;;;;;;;;;12.19;67.49;100464.81;1087606;54;19934;-78
2022/05/07 00:09:47;;;;;;;;;;;;;;;12.17;67.63;100456.94;1088096;54;19939;-79
2022/05/07 00:10:49;;;;;;;;;;;;;;;12.20;67.39;100462.00;1088122;54;19942;-79
2022/05/07 00:11:53;;;;;;;;;;;;;;;12.21;67.40;100463.69;1087896;54;19951;-79
2022/05/07 00:12:57;;;;;;;;;;;;;;;12.18;67.68;100458.63;1087408;54;19943;-78
2022/05/07 00:13:58;;;;;;;;;;;;;;;12.22;67.35;100457.34;1086576;54;19942;-79
2022/05/07 00:15:07;;;;;;;;;;;;;;;12.18;67.78;100461.31;1086828;54;19955;-77
2022/05/07 00:18:49;;;;;;;;;;;;;;;12.28;67.41;100455.91;1086992;54;19938;-78
2022/05/07 00:19:56;;;;;;;;;;;;;;;12.16;68.01;100460.59;1087071;54;19946;-79
2022/05/07 00:20:58;;;;;;;;;;;;;;;12.16;67.71;100464.13;1087876;39;20317;-79
2022/05/07 00:22:02;;;;;;;;;;;;;;;12.14;68.03;100459.91;1086712;54;19939;-79
2022/05/07 00:23:03;;;;;;;;;;;;;;;12.12;68.17;100454.69;1087487;54;19947;-79
2022/05/07 00:24:09;;;;;;;;;;;;;;;12.13;68.25;100456.38;1087755;54;19945;-80
2022/05/07 00:25:11;;;;;;;;;;;;;;;12.08;68.52;100452.44;1086888;54;19953;-79
2022/05/07 00:26:15;;;;;;;;;;;;;;;12.04;68.85;100456.41;1087092;54;20038;-78
2022/05/07 00:27:16;;;;;;;;;;;;;;;12.02;68.66;100451.19;1087369;54;20453;-79
2022/05/07 00:28:20;;;;;;;;;;;;;;;12.08;68.25;100455.13;1087326;54;19993;-79
2022/05/07 00:29:21;;;;;;;;;;;;;;;12.03;68.64;100452.88;1087172;54;19977;-79
2022/05/07 00:30:31;;;;;;;;;;;;;;;11.98;69.19;100455.13;1086936;54;19942;-78
2022/05/07 00:31:33;;;;;;;;;;;;;;;11.99;68.82;100456.81;1087163;54;19953;-79
2022/05/07 00:32:43;;;;;;;;;;;;;;;11.98;69.24;100455.13;1086971;54;19942;-79
2022/05/07 00:33:47;;;;;;;;;;;;;;;12.01;68.71;100457.53;1086928;54;19964;-78
2022/05/07 00:34:51;;;;;;;;;;;;;;;11.91;69.52;100452.16;1087439;54;20439;-79
2022/05/07 00:35:55;;;;;;;;;;;;;;;11.84;69.87;100449.22;1089490;39;20351;-79
2022/05/07 00:36:59;;;;;;;;;;;;;;;11.81;70.19;100451.31;1087104;54;19961;-79
2022/05/07 00:38:00;;;;;;;;;;;;;;;11.78;70.48;100456.97;1087315;54;19957;-79
2022/05/07 00:39:05;;;;;;;;;;;;;;;11.75;71.10;100457.25;1086043;54;19946;-78
2022/05/07 00:40:12;;;;;;;;;;;;;;;11.69;71.23;100448.81;1085794;54;19952;-79
2022/05/07 00:41:16;;;;;;;;;;;;;;;11.62;71.76;100447.66;1085426;54;19946;-79
2022/05/07 00:42:17;;;;;;;;;;;;;;;11.61;71.79;100454.03;1085128;54;19951;-79
2022/05/07 00:43:21;;;;;;;;;;;;;;;11.59;72.27;100455.13;1085573;54;19953;-78
2022/05/07 00:44:23;;;;;;;;;;;;;;;11.56;72.33;100453.59;1085773;54;19946;-78
2022/05/07 00:45:28;;;;;;;;;;;;;;;11.58;71.99;100459.66;1085521;54;20002;-78
2022/05/07 00:46:30;;;;;;;;;;;;;;;11.61;72.07;100451.34;1085594;54;19947;-78
2022/05/07 00:47:34;;;;;;;;;;;;;;;11.63;72.10;100452.03;1085523;54;20021;-79
2022/05/07 00:48:36;;;;;;;;;;;;;;;11.69;71.60;100454.16;1085529;54;19951;-78
2022/05/07 00:49:40;;;;;;;;;;;;;;;11.71;71.47;100454.84;1085194;54;19998;-79
2022/05/07 00:52:01;;;;;;;;;;;;;;;11.58;72.39;100440.06;1086437;54;19991;-79
2022/05/07 00:53:05;;;;;;;;;;;;;;;11.58;72.18;100443.59;1086124;54;19947;-78
2022/05/07 00:54:17;;;;;;;;;;;;;;;11.56;72.45;100448.25;1086458;54;19972;-78
2022/05/07 00:55:18;;;;;;;;;;;;;;;11.57;71.89;100449.94;1086702;54;19947;-79
2022/05/07 00:56:23;;;;;;;;;;;;;;;11.55;72.18;100450.09;1087225;54;20451;-81
2022/05/07 00:57:24;;;;;;;;;;;;;;;11.55;72.03;100450.09;1087557;39;20348;-80
2022/05/07 00:58:28;;;;;;;;;;;;;;;11.57;72.07;100455.28;1086665;54;19954;-81
2022/05/07 00:59:30;;;;;;;;;;;;;;;11.55;72.35;100451.91;1087285;54;19957;-82
2022/05/07 01:00:34;;;;;;;;;;;;;;;11.54;72.52;100443.03;1088776;39;20444;-81
2022/05/07 01:01:35;;;;;;;;;;;;;;;11.57;72.30;100447.25;1087344;54;19939;-79
2022/05/07 01:02:45;;;;;;;;;;;;;;;11.61;71.94;100451.34;1086931;54;19965;-79
2022/05/07 01:03:47;;;;;;;;;;;;;;;11.67;71.48;100449.91;1089003;39;20368;-79
2022/05/07 01:05:00;;;;;;;;;;;;;;;11.75;71.36;100457.25;1087249;54;19950;-81
2022/05/07 01:06:01;;;;;;;;;;;;;;;11.83;70.48;100449.34;1087697;54;19938;-80
2022/05/07 01:07:10;;;;;;;;;;;;;;;11.87;70.55;100448.09;1087683;54;19942;-80
2022/05/07 01:23:40;;;;;;;;;;;;;;;11.92;68.63;100439.63;1087038;54;20417;-79
2022/05/07 01:28:17;;;;;;;;;;;;;;;11.84;68.52;100437.66;1086800;54;19942;-80
2022/05/07 01:35:19;;;;;;;;;;;;;;;11.78;68.62;100440.91;1086657;54;19946;-81
2022/05/07 01:36:29;;;;;;;;;;;;;;;11.78;68.38;100443.59;1087868;54;19953;-82
2022/05/07 01:37:33;;;;;;;;;;;;;;;11.75;68.66;100451.91;1087509;54;19947;-78
2022/05/07 01:38:45;;;;;;;;;;;;;;;11.76;68.68;100450.91;1087954;54;19938;-80
2022/05/07 01:39:47;;;;;;;;;;;;;;;11.76;68.58;100445.56;1087513;54;20413;-79
2022/05/07 01:42:31;;;;;;;;;;;;;;;11.75;68.70;100446.53;1086716;54;19938;-80
2022/05/07 01:45:28;;;;;;;;;;;;;;;11.75;68.58;100447.41;1087287;54;19922;-81
2022/05/07 01:49:02;;;;;;;;;;;;;;;11.70;68.57;100457.69;1087372;54;19977;-78
2022/05/07 01:50:15;;;;;;;;;;;;;;;11.68;68.56;100452.47;1087000;54;19950;-79
2022/05/07 01:51:17;;;;;;;;;;;;;;;11.67;68.52;100450.78;1086947;54;19939;-79
2022/05/07 01:52:24;;;;;;;;;;;;;;;11.70;68.36;100453.19;1087434;39;20363;-79
2022/05/07 01:53:31;;;;;;;;;;;;;;;11.70;68.66;100450.50;1087971;54;19942;-80
2022/05/07 01:54:40;;;;;;;;;;;;;;;11.70;68.43;100453.19;1088593;54;19946;-81
2022/05/07 01:55:45;;;;;;;;;;;;;;;11.69;68.45;100447.94;1088620;54;19926;-80
2022/05/07 01:56:46;;;;;;;;;;;;;;;11.59;69.35;100450.66;1088459;54;19945;-81
2022/05/07 01:57:50;;;;;;;;;;;;;;;11.56;69.48;100445.56;1087081;54;19946;-79
2022/05/07 01:59:00;;;;;;;;;;;;;;;11.59;69.06;100450.66;1087488;54;19946;-82
2022/05/07 02:00:03;;;;;;;;;;;;;;;11.59;69.14;100453.31;1088076;54;20500;-81
2022/05/07 02:01:07;;;;;;;;;;;;;;;11.58;68.97;100445.41;1088196;54;19950;-81
2022/05/07 02:02:08;;;;;;;;;;;;;;;11.57;68.83;100446.44;1088362;54;19982;-81
2022/05/07 02:03:12;;;;;;;;;;;;;;;11.53;69.45;100448.50;1088389;54;20006;-81
2022/05/07 02:04:15;;;;;;;;;;;;;;;11.47;69.97;100454.44;1088304;54;19969;-79
2022/05/07 02:05:20;;;;;;;;;;;;;;;11.50;69.13;100448.81;1088762;39;20344;-79
2022/05/07 02:06:24;;;;;;;;;;;;;;;11.50;69.41;100451.50;1088355;54;19946;-80
2022/05/07 02:07:25;;;;;;;;;;;;;;;11.46;69.83;100452.75;1087933;54;19949;-80
2022/05/07 02:08:40;;;;;;;;;;;;;;;11.39;69.84;100442.63;1087664;54;19939;-80
2022/05/07 02:09:42;;;;;;;;;;;;;;;11.45;69.38;100451.06;1086157;54;20033;-79
2022/05/07 02:10:46;;;;;;;;;;;;;;;11.43;69.71;100443.19;1086073;54;19961;-79
2022/05/07 02:11:47;;;;;;;;;;;;;;;11.45;69.33;100451.06;1085827;54;19943;-77
2022/05/07 02:12:57;;;;;;;;;;;;;;;11.44;69.42;100450.22;1085343;54;19954;-79
2022/05/07 02:13:58;;;;;;;;;;;;;;;11.38;70.01;100454.31;1085959;54;19943;-77
2022/05/07 02:15:03;;;;;;;;;;;;;;;11.38;69.34;100448.94;1085432;54;20057;-78
2022/05/07 02:16:04;;;;;;;;;;;;;;;11.35;69.91;100451.91;1085565;54;19950;-78
2022/05/07 02:17:10;;;;;;;;;;;;;;;11.37;69.72;100449.94;1085705;54;19954;-78
2022/05/07 02:18:12;;;;;;;;;;;;;;;11.39;69.47;100449.78;1085924;54;19965;-78
2022/05/07 02:19:16;;;;;;;;;;;;;;;11.41;69.05;100455.00;1085668;54;19973;-78
2022/05/07 02:20:19;;;;;;;;;;;;;;;11.38;69.43;100448.94;1085669;54;20420;-79
2022/05/07 02:21:31;;;;;;;;;;;;;;;11.38;69.18;100442.78;1086686;39;20368;-78
2022/05/07 02:22:33;;;;;;;;;;;;;;;11.41;69.24;100447.81;1085964;39;20348;-79
2022/05/07 02:23:37;;;;;;;;;;;;;;;11.44;68.86;100452.03;1085372;54;20452;-78
2022/05/07 02:24:43;;;;;;;;;;;;;;;11.43;68.82;100447.69;1085843;54;19947;-79
2022/05/07 02:25:47;;;;;;;;;;;;;;;11.43;68.84;100447.69;1086195;39;20322;-78
2022/05/07 02:26:49;;;;;;;;;;;;;;;11.44;68.99;100450.22;1085784;54;19962;-78
2022/05/07 02:27:53;;;;;;;;;;;;;;;11.42;69.10;100443.31;1085502;54;20494;-79
2022/05/07 02:28:54;;;;;;;;;;;;;;;11.39;69.20;100442.63;1085994;39;20380;-80
2022/05/07 02:29:59;;;;;;;;;;;;;;;11.37;69.32;100444.59;1085922;54;19942;-79
2022/05/07 02:31:00;;;;;;;;;;;;;;;11.33;69.43;100443.19;1085772;54;19935;-78
2022/05/07 02:32:17;;;;;;;;;;;;;;;11.33;69.60;100440.50;1086719;54;19938;-78
2022/05/07 02:33:18;;;;;;;;;;;;;;;11.31;69.65;100442.47;1086886;54;19950;-79
2022/05/07 02:34:28;;;;;;;;;;;;;;;11.29;69.98;100447.13;1087083;39;20332;-80
2022/05/07 02:35:35;;;;;;;;;;;;;;;11.27;69.79;100443.72;1086622;54;19931;-83
2022/05/07 02:36:37;;;;;;;;;;;;;;;11.25;70.12;100443.00;1088457;54;19950;-85
2022/05/07 02:37:41;;;;;;;;;;;;;;;11.26;69.99;100441.19;1088568;54;19950;-81
2022/05/07 02:38:43;;;;;;;;;;;;;;;11.24;70.04;100444.03;1087843;54;19938;-82
2022/05/07 02:39:50;;;;;;;;;;;;;;;11.26;69.94;100446.56;1088425;54;20516;-81
2022/05/07 02:43:29;;;;;;;;;;;;;;;11.25;70.03;100453.72;1088650;54;19970;-80
2022/05/07 02:50:22;;;;;;;;;;;;;;;11.24;69.83;100444.03;1087620;54;19946;-79
2022/05/07 02:51:24;;;;;;;;;;;;;;;11.18;69.96;100447.25;1088373;54;19942;-79
2022/05/07 02:52:28;;;;;;;;;;;;;;;11.13;70.17;100438.78;1088496;54;19954;-80
2022/05/07 02:53:38;;;;;;;;;;;;;;;11.10;70.42;100457.78;1088676;54;19939;-81
2022/05/07 02:54:42;;;;;;;;;;;;;;;11.04;70.78;100452.03;1088780;54;19927;-81
2022/05/07 02:55:49;;;;;;;;;;;;;;;11.00;71.00;100449.75;1088420;54;19935;-80
2022/05/07 02:56:51;;;;;;;;;;;;;;;10.85;72.00;100452.81;1088703;54;19919;-80
2022/05/07 03:00:57;;;;;;;;;;;;;;;10.31;74.46;100460.16;1088784;54;19934;-81
2022/05/07 03:01:59;;;;;;;;;;;;;;;10.24;74.46;100445.66;1093661;46;19919;-82
2022/05/07 03:03:03;;;;;;;;;;;;;;;10.17;74.46;100455.19;1096349;46;19942;-80
2022/05/07 03:04:14;;;;;;;;;;;;;;;10.16;74.73;100454.31;1100961;46;19945;-81
2022/05/07 03:05:18;;;;;;;;;;;;;;;10.11;74.87;100457.38;1088710;54;20002;-81
2022/05/07 03:06:24;;;;;;;;;;;;;;;10.09;75.11;100456.69;1088775;54;19953;-80
2022/05/07 03:07:28;;;;;;;;;;;;;;;10.02;75.30;100458.16;1088013;54;19938;-78
2022/05/07 03:08:35;;;;;;;;;;;;;;;10.02;75.35;100462.69;1087659;54;19939;-80
2022/05/07 03:09:39;;;;;;;;;;;;;;;9.95;75.26;100463.22;1088380;54;19927;-79
2022/05/07 03:10:40;;;;;;;;;;;;;;;9.94;75.44;100458.84;1088423;54;19929;-79
2022/05/07 03:11:53;;;;;;;;;;;;;;;9.93;74.94;100472.31;1088088;54;20428;-79
2022/05/07 03:12:54;;;;;;;;;;;;;;;9.86;75.11;100464.00;1086823;54;20002;-78
2022/05/07 03:14:03;;;;;;;;;;;;;;;9.92;75.09;100465.31;1086956;54;19934;-79
2022/05/07 03:15:08;;;;;;;;;;;;;;;9.89;75.00;100468.22;1087023;54;19946;-77
2022/05/07 03:16:15;;;;;;;;;;;;;;;9.81;75.35;100464.38;1087397;54;19943;-78
2022/05/07 03:17:19;;;;;;;;;;;;;;;9.79;75.29;100460.13;1087394;54;19954;-79
2022/05/07 03:45:44;;;;;;;;;;;;;;;9.64;75.99;100472.94;1088309;54;19944;-82
2022/05/07 03:46:48;;;;;;;;;;;;;;;9.64;76.19;100470.25;1088824;54;19935;-81
2022/05/07 03:47:51;;;;;;;;;;;;;;;9.61;76.46;100476.72;1088842;54;19950;-83
2022/05/07 03:48:55;;;;;;;;;;;;;;;9.58;76.41;100468.13;1088956;54;19938;-81
2022/05/07 03:49:56;;;;;;;;;;;;;;;9.61;76.54;100470.53;1091494;46;19933;-81
2022/05/07 03:51:00;;;;;;;;;;;;;;;9.63;76.33;100485.44;1088909;54;19938;-83
2022/05/07 03:53:31;;;;;;;;;;;;;;;9.57;76.98;100469.09;1088972;54;19954;-83
2022/05/07 03:54:38;;;;;;;;;;;;;;;9.55;76.74;100465.69;1088887;54;20582;-81
2022/05/07 03:55:41;;;;;;;;;;;;;;;9.57;76.52;100471.75;1094484;39;20428;-83
2022/05/07 03:56:53;;;;;;;;;;;;;;;9.60;76.82;100474.19;1088983;54;19927;-83
2022/05/07 03:57:54;;;;;;;;;;;;;;;9.63;76.28;100471.28;1088965;54;19926;-82
2022/05/07 03:59:04;;;;;;;;;;;;;;;9.60;76.71;100476.84;1089010;54;19922;-83
2022/05/07 04:00:09;;;;;;;;;;;;;;;9.61;76.35;100466.03;1088887;54;19934;-83
2022/05/07 04:01:16;;;;;;;;;;;;;;;9.63;76.34;100476.63;1088966;54;19930;-82
2022/05/07 04:02:17;;;;;;;;;;;;;;;9.64;76.62;100467.59;1100308;31;20644;-82
2022/05/07 04:03:21;;;;;;;;;;;;;;;9.68;76.29;100477.06;1088902;54;19934;-82
2022/05/07 04:23:10;;;;;;;;;;;;;;;10.27;73.70;100472.09;1088173;54;19947;-82
2022/05/07 04:24:12;;;;;;;;;;;;;;;10.28;73.83;100469.28;1088744;54;19942;-83
2022/05/07 04:25:16;;;;;;;;;;;;;;;10.33;73.46;100468.91;1089547;46;19970;-83
2022/05/07 04:26:20;;;;;;;;;;;;;;;10.36;73.09;100474.00;1088906;54;19934;-82
2022/05/07 04:27:21;;;;;;;;;;;;;;;10.36;73.24;100463.28;1088914;54;19919;-84
2022/05/07 04:28:31;;;;;;;;;;;;;;;10.36;73.33;100468.63;1088965;54;19934;-82
2022/05/07 04:29:32;;;;;;;;;;;;;;;10.38;73.37;100469.41;1088904;54;19942;-84
2022/05/07 04:30:39;;;;;;;;;;;;;;;10.32;73.55;100472.53;1088905;54;19931;-83
2022/05/07 04:31:40;;;;;;;;;;;;;;;10.33;73.20;100468.91;1088881;54;19934;-82
2022/05/07 04:32:44;;;;;;;;;;;;;;;10.30;73.29;100470.00;1088855;54;19929;-82
2022/05/07 04:33:47;;;;;;;;;;;;;;;10.31;73.63;100470.84;1088849;54;19938;-81
2022/05/07 04:34:52;;;;;;;;;;;;;;;10.31;73.29;100468.19;1088786;54;19938;-80
2022/05/07 04:35:56;;;;;;;;;;;;;;;10.32;73.25;100472.53;1088776;54;19927;-80
2022/05/07 04:36:57;;;;;;;;;;;;;;;10.31;73.49;100481.53;1090336;46;19962;-83
2022/05/07 04:38:01;;;;;;;;;;;;;;;10.32;73.35;100475.22;1088827;54;19943;-82
2022/05/07 04:39:05;;;;;;;;;;;;;;;10.32;73.51;100475.22;1088831;54;19933;-83
2022/05/07 04:40:10;;;;;;;;;;;;;;;10.34;73.21;100473.25;1088725;54;19962;-82
2022/05/07 04:41:19;;;;;;;;;;;;;;;10.36;73.02;100471.31;1088733;54;19927;-83
2022/05/07 04:42:20;;;;;;;;;;;;;;;10.38;73.25;100474.75;1088755;54;19942;-82
2022/05/07 04:43:31;;;;;;;;;;;;;;;10.31;73.60;100478.88;1100543;39;20541;-81
2022/05/07 04:44:33;;;;;;;;;;;;;;;10.32;73.41;100474.38;1088773;54;19938;-81
2022/05/07 04:45:37;;;;;;;;;;;;;;;10.27;73.33;100475.63;1088761;54;19942;-81
2022/05/07 04:46:39;;;;;;;;;;;;;;;10.31;73.47;100478.88;1088827;54;19973;-83
2022/05/07 04:47:43;;;;;;;;;;;;;;;10.35;73.27;100480.31;1088792;54;19978;-81
2022/05/07 04:48:55;;;;;;;;;;;;;;;10.39;73.08;100479.06;1091713;46;19942;-81
2022/05/07 04:49:59;;;;;;;;;;;;;;;10.45;72.91;100485.72;1093604;46;19926;-82
2022/05/07 04:51:12;;;;;;;;;;;;;;;10.49;72.92;100480.94;1088929;54;19930;-83
2022/05/07 04:52:17;;;;;;;;;;;;;;;10.53;72.62;100477.03;1089934;46;19994;-83
2022/05/07 04:53:21;;;;;;;;;;;;;;;10.52;72.48;100483.38;1088834;54;19937;-82
2022/05/07 04:54:25;;;;;;;;;;;;;;;10.55;72.58;100480.44;1088920;54;19938;-82
2022/05/07 04:55:29;;;;;;;;;;;;;;;10.58;72.44;100483.69;1097413;46;20708;-81
2022/05/07 04:56:30;;;;;;;;;;;;;;;10.59;72.29;100482.69;1090472;46;19949;-84
2022/05/07 04:57:34;;;;;;;;;;;;;;;10.54;72.68;100484.09;1088806;54;19986;-83
2022/05/07 04:58:36;;;;;;;;;;;;;;;10.56;72.30;100487.47;1088858;54;19927;-83
2022/05/07 04:59:40;;;;;;;;;;;;;;;10.59;72.48;100489.84;1088771;54;19987;-83
2022/05/07 05:00:44;;;;;;;;;;;;;;;10.66;71.91;100485.69;1088775;54;19927;-82
2022/05/07 05:01:48;;;;;;;;;;;;;;;10.69;71.76;100484.56;1088817;54;19934;-83
2022/05/07 05:02:55;;;;;;;;;;;;;;;10.69;71.89;100482.72;1095188;46;19933;-82
2022/05/07 05:04:00;;;;;;;;;;;;;;;10.69;71.80;100485.41;1088820;54;19950;-82
2022/05/07 05:13:33;;;;;;;;;;;;;;;10.66;72.11;100491.03;1088016;54;19949;-83
2022/05/07 05:15:53;;;;;;;;;;;;;;;10.67;71.92;100494.56;1088713;54;19934;-84
2022/05/07 05:16:54;;;;;;;;;;;;;;;10.66;72.21;100499.06;1088818;54;19935;-83
2022/05/07 05:18:01;;;;;;;;;;;;;;;10.56;72.39;100498.16;1088867;54;19979;-84
2022/05/07 05:19:02;;;;;;;;;;;;;;;10.49;72.99;100494.31;1088898;54;19922;-84
2022/05/07 05:20:07;;;;;;;;;;;;;;;10.46;72.98;100495.44;1088751;54;19938;-82
2022/05/07 05:21:09;;;;;;;;;;;;;;;10.37;73.37;100496.19;1088791;54;19919;-83
2022/05/07 05:22:19;;;;;;;;;;;;;;;10.35;73.64;100495.47;1090765;39;20506;-84
2022/05/07 05:23:20;;;;;;;;;;;;;;;10.34;73.75;100499.16;1088812;54;19946;-83
2022/05/07 05:24:24;;;;;;;;;;;;;;;10.37;73.86;100494.44;1088787;54;19933;-84
2022/05/07 05:25:26;;;;;;;;;;;;;;;10.39;73.81;100503.13;1088828;54;19979;-84
2022/05/07 05:26:32;;;;;;;;;;;;;;;10.37;73.80;100505.13;1088852;54;19927;-82
2022/05/07 05:27:43;;;;;;;;;;;;;;;10.32;74.06;100503.78;1088877;54;19942;-84
2022/05/07 05:28:51;;;;;;;;;;;;;;;10.30;74.13;100509.22;1088780;54;19927;-83
2022/05/07 05:29:55;;;;;;;;;;;;;;;10.38;73.77;100506.81;1088565;54;19948;-82
2022/05/07 05:30:56;;;;;;;;;;;;;;;10.42;73.82;100502.88;1088629;54;19966;-81
2022/05/07 05:32:00;;;;;;;;;;;;;;;10.50;73.61;100504.03;1088781;54;19942;-83
2022/05/07 05:33:04;;;;;;;;;;;;;;;10.53;73.26;100501.09;1088691;54;19935;-83
2022/05/07 05:34:05;;;;;;;;;;;;;;;10.57;73.22;100506.03;1105512;31;20522;-82
2022/05/07 05:35:10;;;;;;;;;;;;;;;10.60;73.26;100504.94;1088688;54;19923;-83
2022/05/07 05:36:12;;;;;;;;;;;;;;;10.65;73.08;100504.53;1088765;54;19926;-83
2022/05/07 05:37:17;;;;;;;;;;;;;;;10.71;72.76;100506.69;1088744;54;19946;-83
2022/05/07 05:38:18;;;;;;;;;;;;;;;10.76;72.53;100509.78;1088801;54;19934;-82
2022/05/07 05:39:22;;;;;;;;;;;;;;;10.85;72.16;100516.16;1088821;54;19938;-84
2022/05/07 05:40:24;;;;;;;;;;;;;;;10.88;72.04;100503.38;1088687;54;19931;-83
2022/05/07 05:41:28;;;;;;;;;;;;;;;10.91;71.92;100511.09;1088672;54;19934;-84
2022/05/07 05:42:38;;;;;;;;;;;;;;;10.95;71.68;100503.69;1088691;54;20590;-82
2022/05/07 05:43:40;;;;;;;;;;;;;;;10.92;71.84;100509.28;1088691;54;19934;-82
2022/05/07 05:44:46;;;;;;;;;;;;;;;10.95;72.21;100503.69;1088652;54;19935;-84
2022/05/07 05:45:48;;;;;;;;;;;;;;;11.05;71.70;100498.34;1088737;54;19953;-84
2022/05/07 05:46:54;;;;;;;;;;;;;;;11.06;71.65;100506.22;1088505;54;19930;-84
2022/05/07 05:47:55;;;;;;;;;;;;;;;11.13;71.47;100500.34;1088768;54;19931;-83
2022/05/07 05:48:59;;;;;;;;;;;;;;;11.13;71.20;100500.34;1091369;46;19954;-83
2022/05/07 05:50:04;;;;;;;;;;;;;;;11.15;71.00;100509.91;1088717;54;19949;-83
2022/05/07 05:51:05;;;;;;;;;;;;;;;11.12;71.56;100504.00;1088685;54;19949;-83
2022/05/07 05:52:11;;;;;;;;;;;;;;;11.22;70.87;100505.69;1088724;54;19922;-82
2022/05/07 05:53:12;;;;;;;;;;;;;;;11.21;71.16;100504.00;1088761;54;20014;-81
2022/05/07 05:54:16;;;;;;;;;;;;;;;11.23;70.98;100504.72;1088523;54;19927;-83
2022/05/07 05:55:20;;;;;;;;;;;;;;;11.30;70.64;100502.34;1088681;54;19926;-82
2022/05/07 05:56:22;;;;;;;;;;;;;;;11.39;70.77;100511.34;1088685;54;20609;-83
2022/05/07 05:57:26;;;;;;;;;;;;;;;11.38;70.21;100509.69;1088694;54;19934;-84
2022/05/07 06:03:33;;;;;;;;;;;;;;;11.49;70.05;100501.50;1088351;54;19939;-83
2022/05/07 06:08:12;;;;;;;;;;;;;;;11.63;69.63;100502.91;1088320;54;19952;-83
2022/05/07 06:09:29;;;;;;;;;;;;;;;;;;;;;
2022/05/07 06:12:27;;;;;;;;;;;;;;;11.76;69.04;100502.63;1096964;39;20640;-83
2022/05/07 06:23:25;;;;;;;;;;;;;;;11.65;69.37;100508.97;1088347;54;19942;-83
2022/05/07 06:28:26;;;;;;;;;;;;;;;11.99;68.07;100508.59;1088469;54;19927;-83
2022/05/07 06:29:34;;;;;;;;;;;;;;;12.00;68.14;100504.91;1088697;54;19950;-83
2022/05/07 06:30:38;;;;;;;;;;;;;;;12.06;68.32;100510.69;1088604;54;19942;-82
2022/05/07 06:31:52;;;;;;;;;;;;;;;12.01;68.08;100511.13;1088716;54;19990;-83
2022/05/07 06:33:02;;;;;;;;;;;;;;;12.01;68.52;100511.97;1088413;54;19942;-83
2022/05/07 06:34:17;;;;;;;;;;;;;;;12.11;68.22;100513.78;1088960;46;19926;-80
2022/05/07 06:35:30;;;;;;;;;;;;;;;12.19;67.80;100519.25;1088595;54;19965;-83
2022/05/07 06:36:49;;;;;;;;;;;;;;;12.24;67.36;100511.66;1088596;54;19931;-81
2022/05/07 06:39:39;;;;;;;;;;;;;;;12.35;67.37;100517.84;1093796;46;19931;-84
2022/05/07 06:40:56;;;;;;;;;;;;;;;12.42;67.20;100508.22;1088611;54;19930;-84
2022/05/07 06:42:11;;;;;;;;;;;;;;;12.37;67.27;100508.66;1091440;46;19967;-84
2022/05/07 06:44:56;;;;;;;;;;;;;;;12.50;66.90;100511.00;1088615;54;20608;-83
2022/05/07 06:46:19;;;;;;;;;;;;;;;12.59;66.66;100509.31;1088693;54;19923;-82
2022/05/07 06:47:20;;;;;;;;;;;;;;;12.66;66.38;100514.94;1088455;54;19942;-82
2022/05/07 06:48:24;;;;;;;;;;;;;;;12.68;66.30;100511.09;1088471;54;19946;-82
2022/05/07 06:49:30;;;;;;;;;;;;;;;12.67;66.48;100511.22;1088709;54;19939;-83
2022/05/07 06:50:31;;;;;;;;;;;;;;;12.76;66.20;100511.22;1088620;54;19942;-83
2022/05/07 06:51:35;;;;;;;;;;;;;;;12.83;66.13;100510.59;1092170;46;19922;-85
2022/05/07 06:55:15;;;;;;;;;;;;;;;13.00;65.32;100511.66;1088489;39;20739;-82
2022/05/07 06:56:23;;;;;;;;;;;;;;;13.05;64.45;100509.34;1088703;54;19926;-83
2022/05/07 06:57:34;;;;;;;;;;;;;;;13.11;64.79;100508.78;1089073;46;20583;-83
2022/05/07 06:59:16;;;;;;;;;;;;;;;;;;;;;
2022/05/07 09:46:22;;;;;;;;;;;;;;;22.71;31.59;100382.94;1059036;54;52255;-78
2022/05/07 09:47:23;;;;;;;;;;;;;;;22.58;31.60;100381.13;1093099;46;19927;-80
2022/05/07 09:48:41;;;;;;;;;;;;;;;22.45;32.10;100382.03;1088755;54;20415;-80
2022/05/07 09:58:32;;;;;;;;;;;;;;;23.87;31.06;100368.31;1086968;54;20027;-79
2022/05/07 09:59:36;;;;;;;;;;;;;;;23.87;31.00;100377.31;1087608;54;20002;-80
2022/05/07 10:00:43;;;;;;;;;;;;;;;23.59;29.27;100364.16;1087595;54;19951;-79
2022/05/07 10:01:56;;;;;;;;;;;;;;;23.99;30.22;100374.72;1087281;54;19947;-78
2022/05/07 10:03:04;;;;;;;;;;;;;;;23.87;29.13;100368.31;1087070;46;19939;-79
2022/05/07 10:04:16;;;;;;;;;;;;;;;23.97;28.99;100374.13;1085868;54;20429;-81
2022/05/07 10:05:34;;;;;;;;;;;;;;;23.41;27.89;100365.78;1085914;54;19942;-80
2022/05/07 10:06:44;;;;;;;;;;;;;;;23.08;28.31;100374.97;1086382;54;19946;-80
2022/05/07 10:08:00;;;;;;;;;;;;;;;23.12;28.17;100378.97;1084786;54;19953;-80
2022/05/07 10:09:11;;;;;;;;;;;;;;;23.33;27.61;100374.22;1084876;54;19945;-79
2022/05/07 10:10:25;;;;;;;;;;;;;;;23.64;27.53;100364.31;1085325;39;20352;-79
2022/05/07 10:11:26;;;;;;;;;;;;;;;23.55;27.45;100365.66;1084627;54;19945;-80
2022/05/07 10:12:31;;;;;;;;;;;;;;;23.75;27.77;100365.50;1084482;54;20640;-78
2022/05/07 10:13:32;;;;;;;;;;;;;;;23.79;27.26;100363.97;1084539;54;19938;-81
2022/05/07 10:14:36;;;;;;;;;;;;;;;23.77;27.21;100375.09;1085545;39;20693;-80
2022/05/07 10:15:38;;;;;;;;;;;;;;;23.79;27.16;100361.22;1085158;54;19943;-79
2022/05/07 10:16:41;;;;;;;;;;;;;;;23.88;27.45;100370.78;1084713;54;19967;-78
2022/05/07 10:17:56;;;;;;;;;;;;;;;23.64;26.96;100364.31;1085340;54;19946;-81
2022/05/07 10:19:10;;;;;;;;;;;;;;;23.39;26.90;100362.44;1084869;54;19946;-79
2022/05/07 10:20:15;;;;;;;;;;;;;;;23.15;26.91;100361.31;1085156;54;19958;-80
2022/05/07 10:21:17;;;;;;;;;;;;;;;22.98;27.60;100361.00;1085397;54;20050;-80
2022/05/07 10:22:24;;;;;;;;;;;;;;;23.00;27.66;100373.34;1085099;54;19947;-80
2022/05/07 10:23:28;;;;;;;;;;;;;;;23.23;27.33;100368.44;1084815;54;19970;-80
2022/05/07 10:24:32;;;;;;;;;;;;;;;23.38;27.30;100355.31;1085613;39;20353;-80
2022/05/07 10:25:33;;;;;;;;;;;;;;;23.35;27.26;100359.31;1085166;54;19954;-79
2022/05/07 10:26:41;;;;;;;;;;;;;;;23.28;27.41;100365.88;1085637;39;20386;-79
2022/05/07 10:27:43;;;;;;;;;;;;;;;23.35;27.63;100362.03;1085359;54;19934;-79
2022/05/07 10:28:47;;;;;;;;;;;;;;;23.35;27.33;100364.75;1085297;54;19946;-79
2022/05/07 10:29:50;;;;;;;;;;;;;;;23.32;27.09;100362.47;1085998;39;20353;-80
2022/05/07 10:30:55;;;;;;;;;;;;;;;23.40;27.21;100364.09;1085667;54;19942;-80
2022/05/07 10:32:03;;;;;;;;;;;;;;;23.49;27.17;100354.59;1086618;54;19963;-79
2022/05/07 10:33:10;;;;;;;;;;;;;;;23.34;27.24;100354.06;1086280;39;20371;-80
2022/05/07 10:34:11;;;;;;;;;;;;;;;23.31;27.74;100357.25;1084733;54;19946;-80
2022/05/07 10:35:16;;;;;;;;;;;;;;;23.46;27.56;100354.19;1085175;54;19938;-79
2022/05/07 10:36:35;;;;;;;;;;;;;;;23.69;27.30;100353.56;1085108;54;19938;-79
2022/05/07 10:37:39;;;;;;;;;;;;;;;23.94;27.18;100352.69;1084960;54;19934;-79
2022/05/07 10:38:46;;;;;;;;;;;;;;;24.07;27.42;100347.13;1086421;54;19969;-79
2022/05/07 10:39:51;;;;;;;;;;;;;;;24.26;27.08;100350.69;1088014;46;20003;-80
2022/05/07 10:40:56;;;;;;;;;;;;;;;24.25;26.47;100354.47;1087793;54;19954;-81
2022/05/07 10:41:57;;;;;;;;;;;;;;;24.10;25.62;100351.28;1088379;54;19930;-78
2022/05/07 10:44:33;;;;;;;;;;;;;;;23.38;26.17;100354.47;1089779;46;19939;-79
2022/05/07 10:47:12;;;;;;;;;;;;;;;23.34;26.44;100349.47;1087522;54;19954;-81
2022/05/07 10:48:19;;;;;;;;;;;;;;;23.08;26.30;100355.91;1087415;54;19950;-80